• Join FlightAware (Why Join?)
  • Login
  • US Flag 
03:57PM EST


 

Airport Tracker/Info


-or-


 

Live Flight TrackerFlight Track Log ✈ LBQ652 ✈ 27-Jun-2013 ✈ KDPA - KMKC

Flight Track Log - Related Links

Times and Time Zones

All times are in EDT time to prevent confusion due to time zone crossing. See the LBQ652 flight status page for this flight to view local times or setup timezone preferences in your user account.

Time Position Orientation Groundspeed Altitude Reporting Facility
EDT Latitude Longitude Course Direction KTS MPH feet Rate Location/Type
03:45AM 41.8558 -88.4008 263° West 221 254 4,200  Level Chicago Center
03:46AM 41.8458 -88.4989 262° West 256 295 5,600 1,380 Climbing Chicago Center
03:47AM 41.8361 -88.6014 263° West 276 318 7,000 1,440 Climbing Chicago Center
03:48AM 41.8267 -88.7042 263° West 280 322 8,500 1,500 Climbing Chicago Center
03:49AM 41.9550 -88.8783 217° Southwest  Level FlightAware Approximate
03:49AM 41.8158 -88.8067 262° West 281 323 10,000  Level Chicago Center
03:50AM 41.8025 -88.9103 260° West 284 327 11,300 1,140 Climbing Chicago Center
03:51AM 41.7742 -89.0092 249° West 288 331 12,300 900 Climbing Chicago Center
03:52AM 41.7472 -89.1106 250° West 293 337 13,200 840 Climbing Chicago Center
03:53AM 41.7197 -89.2169 251° West 304 350 14,100 840 Climbing Chicago Center
03:54AM 41.6892 -89.3189 248° West 300 345 14,900 960 Climbing Chicago Center
03:55AM 41.6350 -89.4347 238° Southwest 308 354 16,100 780 Climbing Chicago Center
03:56AM 41.5944 -89.5289 240° Southwest 301 346 16,500 480 Climbing Chicago Center
03:57AM 41.5483 -89.6322 239° Southwest 317 365 17,100 1,020 Climbing Chicago Center
03:58AM 41.5053 -89.7272 239° Southwest 309 356 18,600 1,140 Climbing Chicago Center
03:59AM 41.4625 -89.8203 238° Southwest 300 345 19,400 840 Climbing Chicago Center
04:00AM 41.4194 -89.9158 239° Southwest 300 345 20,300 840 Climbing Chicago Center
04:01AM 41.3758 -90.0114 239° Southwest 302 348 21,200 840 Climbing Chicago Center
04:02AM 41.3322 -90.1075 239° Southwest 305 351 22,000 720 Climbing Chicago Center
04:03AM 41.2861 -90.2056 238° Southwest 313 360 22,700 660 Climbing Chicago Center
04:04AM 41.2403 -90.3075 239° Southwest 323 372 23,400 600 Climbing Chicago Center
04:05AM 41.1944 -90.4072 239° Southwest 319 367 23,900 480 Climbing Chicago Center
04:06AM 41.1475 -90.5086 238° Southwest 323 372 24,400 600 Climbing Chicago Center
04:07AM 41.1000 -90.6108 238° Southwest 326 375 25,200 600 Climbing Chicago Center
04:08AM 41.0522 -90.7119 238° Southwest 326 375 25,700 600 Climbing Chicago Center
04:09AM 41.0056 -90.8128 239° Southwest 323 372 26,500 720 Climbing Chicago Center
04:10AM 40.9572 -90.9142 238° Southwest 325 374 27,200 720 Climbing Chicago Center
04:11AM 40.9108 -91.0150 239° Southwest 323 372 28,000 780 Climbing Chicago Center
04:12AM 40.8647 -91.1136 238° Southwest 319 367 28,800 780 Climbing Chicago Center
04:13AM 40.8169 -91.2128 238° Southwest 319 367 29,600 540 Climbing Chicago Center
04:14AM 40.7622 -91.3272 238° Southwest 326 375 30,000 180 Climbing Chicago Center
04:15AM 40.7125 -91.4339 238° Southwest 344 396 30,000  Level Chicago Center
04:16AM 40.6589 -91.5442 237° Southwest 359 413 30,000  Level Chicago Center
04:17AM 40.6056 -91.6561 238° Southwest 363 418 30,000  Level Chicago Center
04:18AM 40.5722 -91.7231 237° Southwest 364 419 30,000  Level Kansas City Center
04:19AM 40.5064 -91.8597 238° Southwest 370 426 30,000  Level Kansas City Center
04:20AM 40.4508 -91.9728 237° Southwest 371 427 30,000  Level Kansas City Center
04:21AM 40.3956 -92.0864 237° Southwest 371 427 30,000  Level Kansas City Center
04:22AM 40.3408 -92.1994 238° Southwest 370 426 30,000  Level Kansas City Center
04:23AM 40.2850 -92.3133 237° Southwest 372 428 30,000  Level Kansas City Center
04:24AM 40.2239 -92.4347 237° Southwest 371 427 30,000  Level Kansas City Center
04:25AM 40.1681 -92.5436 236° Southwest 375 432 30,000  Level Kansas City Center
04:26AM 40.1161 -92.6528 238° Southwest 372 428 30,000  Level Kansas City Center
04:27AM 40.0592 -92.7700 238° Southwest 368 423 30,000 -60 Level Kansas City Center
04:28AM 40.0033 -92.8794 236° Southwest 366 421 29,900 -420 Descending Kansas City Center
04:29AM 39.9467 -92.9931 237° Southwest 372 428 29,200 -720 Descending Kansas City Center
04:30AM 39.8889 -93.1089 237° Southwest 380 437 28,500 -840 Descending Kansas City Center
04:31AM 39.8308 -93.2239 237° Southwest 382 440 27,600 -960 Descending Kansas City Center
04:32AM 39.7725 -93.3397 237° Southwest 384 442 26,600 -1,200 Descending Kansas City Center
04:33AM 39.7117 -93.4556 236° Southwest 388 447 25,200 -1,380 Descending Kansas City Center
04:34AM 39.6525 -93.5736 237° Southwest 392 451 23,900 -1,440 Descending Kansas City Center
04:35AM 39.5931 -93.6900 236° Southwest 388 447 22,300 -1,920 Descending Kansas City Center
04:36AM 39.5342 -93.8056 237° Southwest 358 412 20,000 -2,520 Descending Kansas City Center
04:37AM 39.4733 -93.9217 236° Southwest 350 403 17,300 -2,520 Descending Kansas City Center
04:38AM 39.4217 -94.0225 236° Southwest 344 396 15,000 -2,340 Descending Kansas City Center
04:39AM 39.3744 -94.1136 236° Southwest 327 376 12,700 -2,520 Descending Kansas City Center
04:40AM 39.3197 -94.2183 236° Southwest 313 360 10,000 -2,460 Descending Kansas City Center
04:41AM 39.2744 -94.3047 236° Southwest 305 351 7,700 -2,340 Descending Kansas City Center
04:42AM 39.2272 -94.3839 232° Southwest 291 335 5,400 -2,280 Descending Kansas City Center
04:43AM 39.1958 -94.4681 244° Southwest 273 314 3,200 -1,380 Descending Kansas City Center
04:44AM 39.1808 -94.5458 256° West 184 212 2,700 -840 Descending Kansas City Center
04:45AM 39.1628 -94.5811 237° Southwest 126 145 1,600 -900 Descending Kansas City Center
04:46AM 39.1292 -94.5919 194° South 116 133 900 -720 Descending Kansas City Center
04:48AM 39.1229 -94.5928 237° Southwest  Level Estimated